Time;durP1;ratioP1;P1;durP2;ratioP2;P2;SDS_P1;SDS_P2;PMS_P1;PMS_P2;Temp;Humidity;BMP_temperature;BMP_pressure;BME280_temperature;BME280_humidity;BME280_pressure;Samples;Min_cycle;Max_cycle;Signal;HPM_P1;HPM_P2
2022/01/29 00:01:13;;;;;;;30.80;10.93;;;;;;;4.58;100.00;102336.47;6200545;28;20046;-79
2022/01/29 00:04:16;;;;;;;32.78;11.82;;;;;;;4.64;100.00;102327.78;6200714;28;20044;-79
2022/01/29 00:07:19;;;;;;;31.90;11.13;;;;;;;4.64;100.00;102318.25;6200302;28;20498;-80
2022/01/29 00:10:20;;;;;;;38.35;12.45;;;;;;;4.62;100.00;102306.09;6199981;28;20055;-79
2022/01/29 00:13:22;;;;;;;38.38;11.77;;;;;;;4.61;100.00;102292.22;6200248;28;20050;-79
2022/01/29 00:16:23;;;;;;;26.85;10.85;;;;;;;4.68;100.00;102301.75;6199909;28;20414;-79
2022/01/29 00:19:24;;;;;;;28.73;10.65;;;;;;;4.64;100.00;102296.53;6199855;28;20490;-79
2022/01/29 00:22:28;;;;;;;28.90;11.50;;;;;;;4.67;100.00;102293.91;6198947;28;20061;-79
2022/01/29 00:25:29;;;;;;;32.83;10.25;;;;;;;4.67;100.00;102286.09;6200016;28;20046;-81
2022/01/29 00:28:33;;;;;;;28.17;10.45;;;;;;;4.73;100.00;102267.88;6199542;28;20050;-79
2022/01/29 00:31:35;;;;;;;27.25;10.45;;;;;;;4.70;100.00;102257.47;6199971;28;20092;-79
2022/01/29 00:34:37;;;;;;;31.25;9.70;;;;;;;4.73;100.00;102244.44;6199347;28;20417;-79
2022/01/29 00:37:39;;;;;;;30.13;10.25;;;;;;;4.73;100.00;102247.03;6199997;28;20065;-79
2022/01/29 00:40:42;;;;;;;32.42;9.98;;;;;;;4.80;100.00;102241.75;6200080;28;20050;-79
2022/01/29 00:43:43;;;;;;;26.00;11.00;;;;;;;4.79;100.00;102250.47;6200471;28;20050;-79
2022/01/29 00:46:44;;;;;;;29.77;10.40;;;;;;;4.79;100.00;102245.25;6200428;28;20051;-81
2022/01/29 00:49:46;;;;;;;32.28;10.00;;;;;;;4.82;100.00;102234.81;6199898;28;20050;-79
2022/01/29 00:52:48;;;;;;;29.92;12.13;;;;;;;4.78;100.00;102229.63;6200056;28;20498;-79
2022/01/29 00:55:50;;;;;;;42.70;11.35;;;;;;;4.81;100.00;102216.59;6201675;28;20055;-79
2022/01/29 00:58:51;;;;;;;32.25;11.43;;;;;;;4.82;100.00;102227.00;6202791;28;20046;-80
2022/01/29 01:01:53;;;;;;;34.28;12.48;;;;;;;4.83;100.00;102209.63;6200023;28;20512;-79
2022/01/29 01:04:54;;;;;;;32.92;11.07;;;;;;;4.83;100.00;102212.25;6192636;28;20050;-79
2022/01/29 01:07:58;;;;;;;24.92;10.27;;;;;;;4.80;100.00;102209.66;6190019;28;20061;-79
2022/01/29 01:10:59;;;;;;;29.05;10.00;;;;;;;4.79;100.00;102210.53;6196158;28;20050;-79
2022/01/29 01:14:01;;;;;;;31.20;9.82;;;;;;;4.81;100.00;102212.25;6196620;28;20042;-80
2022/01/29 01:17:03;;;;;;;28.70;10.73;;;;;;;4.82;100.00;102194.91;6196607;28;20042;-79
2022/01/29 01:20:06;;;;;;;37.13;11.35;;;;;;;4.77;100.00;102183.66;6198974;28;20050;-79
2022/01/29 01:23:09;;;;;;;29.13;11.07;;;;;;;4.79;100.00;102182.75;6198959;28;20054;-79
2022/01/29 01:26:10;;;;;;;31.40;13.48;;;;;;;4.82;100.00;102174.91;6200169;28;20073;-80
2022/01/29 01:29:11;;;;;;;26.85;11.82;;;;;;;4.84;100.00;102169.69;6199044;28;20066;-79
2022/01/29 01:32:13;;;;;;;26.83;10.63;;;;;;;4.87;100.00;102158.41;6190800;28;20406;-79
2022/01/29 01:35:19;;;;;;;32.72;12.23;;;;;;;4.87;100.00;102159.25;6198758;28;20057;-80
2022/01/29 01:38:26;;;;;;;30.08;11.73;;;;;;;4.89;100.00;102156.63;6199559;28;20061;-79
2022/01/29 01:41:30;;;;;;;28.38;11.25;;;;;;;4.89;100.00;102148.81;6198914;28;20410;-79
2022/01/29 01:44:34;;;;;;;29.20;10.82;;;;;;;4.94;100.00;102141.84;6200378;28;20093;-79
2022/01/29 01:47:36;;;;;;;34.38;10.90;;;;;;;4.89;100.00;102147.09;6203206;28;20417;-80
2022/01/29 01:50:37;;;;;;;31.35;10.07;;;;;;;4.87;100.00;102143.63;6203211;28;20514;-79
2022/01/29 01:53:40;;;;;;;33.22;10.60;;;;;;;4.86;100.00;102139.31;6202777;28;20512;-79
2022/01/29 01:56:42;;;;;;;31.48;11.00;;;;;;;4.95;100.00;102130.53;6203357;28;20490;-80
2022/01/29 01:59:43;;;;;;;29.15;11.35;;;;;;;4.88;100.00;102132.34;6202935;28;20461;-81
2022/01/29 02:02:45;;;;;;;27.48;9.90;;;;;;;4.82;100.00;102114.16;6204001;28;20517;-79
2022/01/29 02:05:47;;;;;;;22.20;10.93;;;;;;;4.76;100.00;102115.03;6203946;28;20406;-79
2022/01/29 02:08:57;;;;;;;28.23;9.98;;;;;;;4.73;100.00;102106.41;6204152;28;20050;-80
2022/01/29 02:12:01;;;;;;;21.00;10.07;;;;;;;4.71;100.00;102101.19;6203853;28;20050;-80
2022/01/29 02:15:05;;;;;;;27.67;9.90;;;;;;;4.68;100.00;102098.63;6203483;28;20399;-79
2022/01/29 02:18:12;;;;;;;26.92;10.45;;;;;;;4.65;100.00;102101.25;6203168;28;20069;-79
2022/01/29 02:21:15;;;;;;;22.95;10.25;;;;;;;4.66;100.00;102091.69;6203404;28;20050;-79
2022/01/29 02:24:18;;;;;;;26.77;9.70;;;;;;;4.64;100.00;102078.69;6203093;28;20047;-79
2022/01/29 02:27:19;;;;;;;27.02;10.02;;;;;;;4.60;100.00;102073.53;6203092;28;20426;-79
2022/01/29 02:30:21;;;;;;;28.95;9.93;;;;;;;4.55;100.00;102057.94;6203196;28;20054;-79
2022/01/29 02:33:22;;;;;;;29.02;10.30;;;;;;;4.52;100.00;102052.75;6203574;28;20054;-79
2022/01/29 02:36:24;;;;;;;28.25;10.73;;;;;;;4.47;100.00;102051.91;6202923;28;20046;-79
2022/01/29 02:39:26;;;;;;;24.98;10.20;;;;;;;4.46;100.00;102040.66;6202686;28;20490;-79
2022/01/29 02:42:28;;;;;;;22.40;10.05;;;;;;;4.47;100.00;102031.09;6202394;28;20058;-79
2022/01/29 02:45:29;;;;;;;27.00;9.82;;;;;;;4.45;100.00;102025.03;6202045;28;20516;-78
2022/01/29 02:48:30;;;;;;;19.75;8.73;;;;;;;4.44;100.00;102029.38;6201957;28;20046;-79
2022/01/29 02:51:32;;;;;;;22.10;8.30;;;;;;;4.44;100.00;102023.31;6201535;28;20413;-80
2022/01/29 02:54:35;;;;;;;26.40;9.43;;;;;;;4.40;100.00;102014.66;6201507;28;20046;-80
2022/01/29 02:57:37;;;;;;;28.83;9.90;;;;;;;4.46;100.00;102011.16;6202054;28;20046;-80
2022/01/29 03:00:38;;;;;;;28.20;9.23;;;;;;;4.44;100.00;102010.28;6202613;28;20065;-80
2022/01/29 03:03:40;;;;;;;29.83;9.98;;;;;;;4.42;100.00;101999.91;6201036;28;20057;-81
2022/01/29 03:06:41;;;;;;;21.70;8.80;;;;;;;4.44;100.00;102003.34;6191893;28;20046;-81
2022/01/29 03:09:43;;;;;;;28.17;9.75;;;;;;;4.47;100.00;101990.31;6190923;28;20070;-80
2022/01/29 03:12:45;;;;;;;26.20;9.65;;;;;;;4.43;100.00;101988.59;6201746;28;20050;-81
2022/01/29 03:15:46;;;;;;;24.17;9.63;;;;;;;4.45;100.00;101972.97;6202006;28;20417;-80
2022/01/29 03:18:48;;;;;;;23.02;9.45;;;;;;;4.44;100.00;101972.09;6202716;28;20066;-80
2022/01/29 03:21:49;;;;;;;38.47;11.18;;;;;;;4.48;100.00;101968.59;6206138;28;20069;-80
2022/01/29 03:24:52;;;;;;;24.55;9.23;;;;;;;4.45;100.00;101967.75;6202914;28;20482;-81
2022/01/29 03:27:53;;;;;;;25.52;9.43;;;;;;;4.43;100.00;101967.78;6201679;28;20498;-80
2022/01/29 03:30:56;;;;;;;21.83;9.10;;;;;;;4.46;100.00;101965.16;6193531;28;20046;-80
2022/01/29 03:33:57;;;;;;;24.23;8.93;;;;;;;4.45;100.00;101971.25;6201695;28;20125;-80
2022/01/29 03:36:58;;;;;;;31.23;9.45;;;;;;;4.48;100.00;101959.94;6200134;28;20063;-80
2022/01/29 03:40:02;;;;;;;24.63;8.52;;;;;;;4.50;100.00;101953.84;6199941;28;20050;-80
2022/01/29 03:43:07;;;;;;;28.45;10.57;;;;;;;4.53;100.00;101947.75;6201185;28;20046;-81
2022/01/29 03:46:08;;;;;;;23.08;8.48;;;;;;;4.56;100.00;101940.78;6200261;28;20093;-81
2022/01/29 03:49:10;;;;;;;24.63;8.05;;;;;;;4.56;100.00;101942.53;6199790;28;20506;-81
2022/01/29 03:52:11;;;;;;;30.02;9.27;;;;;;;4.55;100.00;101943.41;6199445;28;20053;-80
2022/01/29 03:55:14;;;;;;;28.98;8.68;;;;;;;4.53;100.00;101929.53;6199612;28;20054;-80
2022/01/29 03:58:15;;;;;;;22.63;8.40;;;;;;;4.52;100.00;101933.00;6199329;28;20053;-81
2022/01/29 04:01:16;;;;;;;24.45;9.13;;;;;;;4.54;100.00;101921.72;6200124;28;20046;-81
2022/01/29 04:04:18;;;;;;;20.58;7.43;;;;;;;4.63;100.00;101901.66;6200659;28;20409;-80
2022/01/29 04:07:19;;;;;;;33.88;10.07;;;;;;;4.65;100.00;101899.91;6199132;28;20051;-80
2022/01/29 04:10:23;;;;;;;22.55;8.63;;;;;;;4.59;100.00;101890.44;6201714;28;20050;-81
2022/01/29 04:13:27;;;;;;;18.65;7.47;;;;;;;4.58;100.00;101896.50;6200959;28;20061;-81
2022/01/29 04:16:28;;;;;;;21.90;8.93;;;;;;;4.57;100.00;101869.59;6201272;28;20118;-79
2022/01/29 04:19:29;;;;;;;19.00;8.25;;;;;;;4.55;100.00;101858.38;6211095;23;20050;-76
2022/01/29 04:22:31;;;;;;;25.15;9.40;;;;;;;4.56;100.00;101854.88;6197292;28;20493;-76
2022/01/29 04:25:33;;;;;;;17.05;7.70;;;;;;;4.56;100.00;101849.66;6198178;28;20047;-76
2022/01/29 04:28:39;;;;;;;24.17;8.05;;;;;;;4.57;100.00;101843.56;6192749;28;20050;-76
2022/01/29 04:31:45;;;;;;;19.83;7.25;;;;;;;4.57;100.00;101837.50;6173822;28;20458;-76
2022/01/29 04:34:46;;;;;;;22.20;9.38;;;;;;;4.57;100.00;101838.38;6174081;28;20049;-76
2022/01/29 04:37:49;;;;;;;16.55;6.65;;;;;;;4.60;100.00;101834.88;6174168;28;20055;-76
2022/01/29 04:40:53;;;;;;;23.88;7.57;;;;;;;4.65;100.00;101832.22;6173604;28;20043;-76
2022/01/29 04:43:54;;;;;;;20.88;8.20;;;;;;;4.65;100.00;101801.84;6170384;28;20058;-76
2022/01/29 04:46:55;;;;;;;19.30;7.43;;;;;;;4.66;100.00;101811.38;6159917;28;20051;-76
2022/01/29 04:49:57;;;;;;;17.77;7.97;;;;;;;4.68;100.00;101809.63;6172336;28;20051;-75
2022/01/29 04:52:58;;;;;;;22.48;8.98;;;;;;;4.75;100.00;101800.00;6173549;28;20043;-77
2022/01/29 04:56:01;;;;;;;20.35;8.55;;;;;;;4.85;100.00;101791.16;6173551;28;20061;-77
2022/01/29 04:59:04;;;;;;;19.95;8.30;;;;;;;4.84;100.00;101800.72;6170827;28;20761;-76
2022/01/29 05:02:05;;;;;;;15.00;7.25;;;;;;;4.86;100.00;101795.53;6172693;28;20442;-77
2022/01/29 05:05:07;;;;;;;16.67;7.00;;;;;;;4.95;100.00;101800.59;6171946;28;20050;-76
2022/01/29 05:08:11;;;;;;;19.63;8.40;;;;;;;4.90;100.00;101794.56;6173235;28;20503;-76
2022/01/29 05:11:15;;;;;;;18.10;7.03;;;;;;;4.96;100.00;101810.13;6172856;28;20098;-76
2022/01/29 05:14:26;;;;;;;20.10;8.30;;;;;;;5.07;100.00;101800.44;6173109;28;20494;-76
2022/01/29 05:27:28;;;;;;;17.73;6.95;;;;;;;5.06;100.00;101792.63;6176363;28;20059;-77
2022/01/29 05:30:29;;;;;;;20.70;7.35;;;;;;;5.23;100.00;101789.81;6176668;28;20051;-75
2022/01/29 05:33:31;;;;;;;21.02;8.23;;;;;;;5.20;100.00;101782.88;6176545;28;20422;-76
2022/01/29 05:36:32;;;;;;;16.48;7.93;;;;;;;5.25;100.00;101772.38;6172798;28;20391;-76
2022/01/29 05:39:34;;;;;;;20.33;7.45;;;;;;;5.22;100.00;101773.31;6176578;28;20050;-76
2022/01/29 05:42:36;;;;;;;20.20;8.40;;;;;;;5.30;100.00;101779.25;6176139;28;20054;-76
2022/01/29 05:45:38;;;;;;;16.05;7.95;;;;;;;5.34;100.00;101780.06;6176049;28;20066;-77
2022/01/29 05:48:40;;;;;;;19.02;6.85;;;;;;;5.35;100.00;101771.38;6176271;28;20050;-77
2022/01/29 05:51:41;;;;;;;19.13;6.80;;;;;;;5.35;100.00;101758.31;6175725;28;20521;-77
2022/01/29 05:54:42;;;;;;;16.63;7.68;;;;;;;5.34;100.00;101765.28;6176159;28;20050;-76
2022/01/29 05:57:45;;;;;;;21.05;8.02;;;;;;;5.40;100.00;101766.94;6175686;28;20050;-76
2022/01/29 06:00:46;;;;;;;19.83;7.35;;;;;;;5.42;100.00;101752.16;6173123;28;20069;-76
2022/01/29 06:03:48;;;;;;;18.90;6.53;;;;;;;5.43;100.00;101759.06;6156584;28;20415;-76
2022/01/29 06:06:49;;;;;;;18.05;7.00;;;;;;;5.48;100.00;101751.19;6153537;29;20054;-76
2022/01/29 06:09:51;;;;;;;14.85;6.35;;;;;;;5.48;100.00;101738.16;6157144;28;20054;-76
2022/01/29 06:13:01;;;;;;;15.25;7.10;;;;;;;5.52;100.00;101743.28;6177141;28;20058;-77
2022/01/29 06:16:03;;;;;;;14.77;7.10;;;;;;;5.52;100.00;101735.47;6176839;28;20430;-76
2022/01/29 06:19:04;;;;;;;19.52;6.97;;;;;;;5.57;100.00;101736.25;6176444;28;20047;-77
2022/01/29 06:22:09;;;;;;;17.40;6.45;;;;;;;5.59;100.00;101725.81;6173790;28;20055;-77
2022/01/29 06:25:11;;;;;;;14.77;7.47;;;;;;;5.62;100.00;101722.28;6176870;28;20043;-77
2022/01/29 06:28:13;;;;;;;16.23;6.05;;;;;;;5.62;100.00;101719.66;6171702;28;20054;-77
2022/01/29 06:31:15;;;;;;;13.07;6.47;;;;;;;5.66;100.00;101711.75;6175654;28;20058;-77
2022/01/29 06:34:16;;;;;;;20.10;9.02;;;;;;;5.75;100.00;101716.81;6176620;28;20046;-77
2022/01/29 06:37:18;;;;;;;15.00;7.03;;;;;;;5.67;100.00;101712.63;6176973;28;20051;-76
2022/01/29 06:40:20;;;;;;;17.58;6.85;;;;;;;5.77;100.00;101706.38;6176470;28;20053;-76
2022/01/29 06:43:22;;;;;;;16.35;6.68;;;;;;;5.75;100.00;101702.91;6176597;28;20419;-75
2022/01/29 06:46:23;;;;;;;15.60;6.22;;;;;;;5.73;100.00;101702.09;6176526;28;20058;-76
2022/01/29 06:49:25;;;;;;;17.92;7.03;;;;;;;5.73;100.00;101692.53;6176306;28;20062;-77
2022/01/29 06:52:27;;;;;;;17.40;6.78;;;;;;;5.72;100.00;101688.22;6176346;28;20050;-76
2022/01/29 06:55:28;;;;;;;17.95;6.35;;;;;;;5.72;100.00;101688.22;6174632;28;20058;-76
2022/01/29 06:58:31;;;;;;;16.95;6.18;;;;;;;5.77;100.00;101678.53;6176086;28;20450;-77
2022/01/29 07:01:32;;;;;;;13.82;5.80;;;;;;;5.86;100.00;101682.72;6175857;28;20051;-76
2022/01/29 07:04:34;;;;;;;20.27;6.78;;;;;;;5.92;100.00;101669.59;6176194;28;20057;-77
2022/01/29 07:07:35;;;;;;;14.50;6.03;;;;;;;5.92;100.00;101672.22;6176076;28;20061;-77
2022/01/29 07:10:37;;;;;;;12.10;6.60;;;;;;;5.89;100.00;101664.41;6171043;28;20054;-77
2022/01/29 07:13:40;;;;;;;18.65;7.53;;;;;;;5.90;100.00;101670.47;6170136;28;20062;-77
2022/01/29 07:16:43;;;;;;;15.90;5.97;;;;;;;5.84;100.00;101667.09;6175943;28;20058;-76
2022/01/29 07:19:45;;;;;;;12.48;6.22;;;;;;;5.87;100.00;101666.19;6174666;28;20051;-77
2022/01/29 07:22:46;;;;;;;14.85;7.03;;;;;;;5.85;100.00;101649.69;6175737;28;20062;-77
2022/01/29 07:25:48;;;;;;;11.40;5.65;;;;;;;5.85;100.00;101660.13;6175624;28;20054;-76
2022/01/29 07:28:50;;;;;;;13.57;5.63;;;;;;;5.92;100.00;101650.47;6175017;28;20517;-76
2022/01/29 07:31:52;;;;;;;15.77;6.38;;;;;;;5.99;100.00;101657.28;6174660;28;20513;-77
2022/01/29 07:34:53;;;;;;;12.90;5.88;;;;;;;5.98;100.00;101640.78;6175266;28;20495;-77
2022/01/29 07:37:55;;;;;;;22.25;6.78;;;;;;;5.96;100.00;101639.09;6175362;28;20051;-76
2022/01/29 07:40:56;;;;;;;16.77;7.25;;;;;;;5.99;100.00;101633.81;6174335;28;20046;-76
2022/01/29 07:43:59;;;;;;;15.57;4.75;;;;;;;5.97;100.00;101628.63;6166517;28;20069;-76
2022/01/29 07:47:00;;;;;;;14.73;5.90;;;;;;;6.02;100.00;101620.69;6173020;28;20042;-76
2022/01/29 07:50:02;;;;;;;10.10;5.00;;;;;;;6.01;100.00;101629.44;6172039;28;20053;-77
2022/01/29 07:53:03;;;;;;;17.92;5.55;;;;;;;6.08;100.00;101625.78;6166930;28;20046;-77
2022/01/29 07:56:05;;;;;;;13.65;5.57;;;;;;;6.15;100.00;101629.16;6174857;28;20053;-75
2022/01/29 07:59:07;;;;;;;10.15;5.53;;;;;;;6.12;100.00;101627.44;6174557;28;20058;-76
2022/01/29 08:02:09;;;;;;;16.05;5.70;;;;;;;6.14;100.00;101607.41;6167446;28;20047;-76
2022/01/29 08:05:11;;;;;;;22.55;6.78;;;;;;;6.33;100.00;101613.09;6173204;28;20059;-77
2022/01/29 08:08:12;;;;;;;14.90;5.85;;;;;;;6.21;100.00;101618.56;6171110;28;20134;-77
2022/01/29 08:11:14;;;;;;;12.63;5.68;;;;;;;6.24;100.00;101627.19;6158177;28;20569;-76
2022/01/29 08:14:17;;;;;;;11.60;5.47;;;;;;;6.25;100.00;101618.47;6150589;29;20066;-77
2022/01/29 08:17:18;;;;;;;13.05;6.00;;;;;;;6.32;100.00;101627.91;6167962;28;20051;-76
2022/01/29 08:20:19;;;;;;;14.88;6.38;;;;;;;6.32;100.00;101633.13;6173276;28;20046;-77
2022/01/29 08:23:21;;;;;;;14.02;5.70;;;;;;;6.36;100.00;101631.31;6173280;28;20057;-77
2022/01/29 08:26:22;;;;;;;14.75;6.20;;;;;;;6.32;100.00;101643.56;6174200;28;20051;-76
2022/01/29 08:29:25;;;;;;;11.73;5.68;;;;;;;6.33;100.00;101653.09;6173352;28;20054;-77
2022/01/29 08:32:26;;;;;;;16.33;5.50;;;;;;;6.30;100.00;101627.06;6172619;28;20143;-76
2022/01/29 08:35:28;;;;;;;14.15;6.13;;;;;;;6.29;100.00;101627.94;6174010;28;20076;-76
2022/01/29 08:38:29;;;;;;;11.65;5.40;;;;;;;6.33;100.00;101611.34;6172075;28;20050;-77
2022/01/29 08:41:31;;;;;;;15.88;5.85;;;;;;;6.38;100.00;101633.88;6172292;28;20418;-76
2022/01/29 08:44:34;;;;;;;12.35;5.00;;;;;;;6.35;100.00;101613.91;6173019;28;20396;-77
2022/01/29 08:47:35;;;;;;;12.77;6.00;;;;;;;6.32;100.00;101612.22;6171781;28;20081;-77
2022/01/29 08:50:36;;;;;;;16.45;4.88;;;;;;;6.28;100.00;101613.19;6171526;28;20422;-76
2022/01/29 08:53:38;;;;;;;12.77;5.15;;;;;;;6.29;100.00;101609.69;6173297;28;20050;-77
2022/01/29 08:56:39;;;;;;;14.80;6.63;;;;;;;6.29;100.00;101611.44;6173417;28;20061;-78
2022/01/29 08:59:42;;;;;;;10.90;4.50;;;;;;;6.32;100.00;101611.38;6172037;28;20050;-75
2022/01/29 09:02:44;;;;;;;11.73;5.00;;;;;;;6.29;100.00;101601.00;6163138;28;20050;-76
2022/01/29 09:05:46;;;;;;;11.73;4.75;;;;;;;6.32;100.00;101620.06;6173055;28;20047;-77
2022/01/29 09:08:50;;;;;;;16.45;5.53;;;;;;;6.38;100.00;101594.72;6173216;28;20415;-76
2022/01/29 09:11:52;;;;;;;12.77;4.90;;;;;;;6.38;100.00;101599.94;6164139;28;20046;-77
2022/01/29 09:14:55;;;;;;;15.73;5.90;;;;;;;6.38;100.00;101579.91;6169461;28;20418;-77
2022/01/29 09:17:57;;;;;;;9.32;4.78;;;;;;;6.48;100.00;101578.78;6171837;28;20430;-77
2022/01/29 09:20:59;;;;;;;9.75;4.18;;;;;;;6.46;100.00;101564.06;6167562;28;20043;-75
2022/01/29 09:24:01;;;;;;;7.65;3.78;;;;;;;6.50;100.00;101570.94;6170158;28;20445;-76
2022/01/29 09:27:04;;;;;;;14.00;4.30;;;;;;;6.47;100.00;101556.19;6171832;28;20051;-77
2022/01/29 09:30:08;;;;;;;12.25;4.57;;;;;;;6.44;100.00;101555.41;6168208;28;20426;-76
2022/01/29 09:33:11;;;;;;;8.90;4.55;;;;;;;6.46;100.00;101582.34;6173478;28;20129;-76
2022/01/29 09:36:12;;;;;;;12.93;4.75;;;;;;;6.50;100.00;101573.56;6172599;28;20059;-77
2022/01/29 09:39:13;;;;;;;12.60;4.50;;;;;;;6.56;100.00;101561.19;6172869;28;20051;-77
2022/01/29 09:42:15;;;;;;;9.48;4.13;;;;;;;6.56;100.00;101566.44;6161188;28;20427;-77
2022/01/29 09:45:21;;;;;;;12.82;4.72;;;;;;;6.59;100.00;101555.06;6170949;28;20057;-76
2022/01/29 09:48:23;;;;;;;10.95;4.18;;;;;;;6.57;100.00;101556.84;6165460;28;20137;-77
2022/01/29 09:51:27;;;;;;;12.45;5.85;;;;;;;6.60;100.00;101555.00;6172225;28;20051;-77
2022/01/29 09:54:28;;;;;;;9.57;4.05;;;;;;;6.66;100.00;101558.38;6167195;28;20048;-77
2022/01/29 09:57:30;;;;;;;11.40;3.80;;;;;;;6.65;100.00;101552.28;6169772;28;20047;-76
2022/01/29 10:00:33;;;;;;;10.23;4.30;;;;;;;6.67;100.00;101536.56;6166145;28;20414;-76
2022/01/29 10:03:36;;;;;;;10.48;4.13;;;;;;;6.68;100.00;101533.94;6168318;28;20491;-75
2022/01/29 10:06:42;;;;;;;9.63;4.07;;;;;;;6.70;100.00;101523.44;6173827;28;20051;-77
2022/01/29 10:09:44;;;;;;;11.65;4.07;;;;;;;6.68;100.00;101520.88;6177076;28;20054;-76
2022/01/29 10:12:46;;;;;;;10.60;4.68;;;;;;;6.72;100.00;101526.88;6177290;28;20054;-76
2022/01/29 10:15:48;;;;;;;7.65;3.92;;;;;;;6.71;100.00;101517.31;6177224;28;20046;-77
2022/01/29 10:19:00;;;;;;;8.30;3.00;;;;;;;6.83;100.00;101512.66;6177302;28;20046;-76
2022/01/29 10:22:01;;;;;;;8.27;3.58;;;;;;;6.74;100.00;101497.22;6173569;28;20490;-75
2022/01/29 10:25:05;;;;;;;7.47;3.33;;;;;;;6.78;100.00;101500.63;6188165;28;20429;-76
2022/01/29 10:28:13;;;;;;;6.80;3.40;;;;;;;6.82;100.00;101507.47;6185427;28;20050;-75
2022/01/29 10:31:16;;;;;;;10.32;4.10;;;;;;;6.83;100.00;101498.75;6186584;28;20050;-75
2022/01/29 10:34:22;;;;;;;8.38;4.68;;;;;;;6.97;100.00;101501.00;6188775;28;20074;-75
2022/01/29 10:37:24;;;;;;;9.27;3.38;;;;;;;7.03;100.00;101475.53;6197069;28;20058;-74
2022/01/29 10:40:30;;;;;;;5.43;2.88;;;;;;;7.04;100.00;101474.66;6198815;28;20046;-75
2022/01/29 10:43:32;;;;;;;13.07;4.57;;;;;;;7.15;100.00;101445.59;6197044;28;20176;-71
2022/01/29 10:46:34;;;;;;;8.43;3.60;;;;;;;7.18;100.00;101444.69;6185540;28;20057;-74
2022/01/29 10:49:38;;;;;;;9.38;3.95;;;;;;;7.20;100.00;101427.19;6176394;28;20525;-75
2022/01/29 10:52:40;;;;;;;8.05;3.00;;;;;;;7.28;100.00;101418.22;6175988;28;20162;-75
2022/01/29 10:55:59;;;;;;;6.82;3.20;;;;;;;7.27;100.00;101415.66;6176421;28;20054;-73
2022/01/29 10:59:00;;;;;;;;;;;;;;;7.27;100.00;101406.06;6176327;28;20418;-74
2022/01/29 11:02:05;;;;;;;5.82;2.70;;;;;;;7.26;100.00;101399.09;6176088;28;19922;-74
2022/01/29 11:05:07;;;;;;;8.57;3.10;;;;;;;7.27;100.00;101392.13;6175884;28;20061;-75
2022/01/29 11:08:09;;;;;;;6.03;2.95;;;;;;;7.25;100.00;101384.31;6175964;28;20487;-75
2022/01/29 11:11:11;;;;;;;5.63;3.15;;;;;;;7.20;100.00;101394.06;6175677;28;20529;-75
2022/01/29 11:14:15;;;;;;;7.75;3.40;;;;;;;7.28;100.00;101379.00;6193440;28;20426;-75
2022/01/29 11:17:20;;;;;;;6.78;3.05;;;;;;;7.22;100.00;101362.63;6198404;28;20046;-75
2022/01/29 11:20:21;;;;;;;8.45;2.50;;;;;;;7.17;100.00;101365.38;6191051;28;20457;-75
2022/01/29 11:23:24;;;;;;;4.95;2.85;;;;;;;7.15;100.00;101337.59;6199122;28;20050;-75
2022/01/29 11:26:25;;;;;;;4.78;2.70;;;;;;;7.19;100.00;101323.53;6199246;28;20057;-74
2022/01/29 11:29:32;;;;;;;8.95;3.78;;;;;;;7.21;100.00;101317.34;6199555;28;20498;-75
2022/01/29 11:32:38;;;;;;;6.28;3.03;;;;;;;7.18;100.00;101327.06;6194266;28;20058;-75
2022/01/29 11:35:58;;;;;;;6.50;3.45;;;;;;;7.21;100.00;101314.72;6187407;28;20083;-74
2022/01/29 11:39:19;;;;;;;6.80;3.17;;;;;;;7.18;100.00;101309.63;6194332;28;20046;-74
2022/01/29 11:42:38;;;;;;;7.38;3.45;;;;;;;7.17;100.00;101292.19;6195955;28;20050;-75
2022/01/29 11:46:04;;;;;;;6.97;3.22;;;;;;;7.20;100.00;101299.09;6193847;28;20058;-76
2022/01/29 11:49:19;;;;;;;7.72;3.08;;;;;;;7.21;100.00;101296.44;6191496;28;20090;-75
2022/01/29 11:52:21;;;;;;;8.57;3.50;;;;;;;7.21;100.00;101312.13;6198490;28;20043;-75
2022/01/29 11:55:34;;;;;;;9.85;2.75;;;;;;;7.23;100.00;101299.03;6194771;28;20050;-75
2022/01/29 11:58:35;;;;;;;5.90;2.40;;;;;;;7.22;100.00;101298.16;6198231;28;20057;-75
2022/01/29 12:01:37;;;;;;;4.75;2.90;;;;;;;7.21;100.00;101303.41;6197104;28;20047;-76
2022/01/29 12:05:06;;;;;;;4.95;2.85;;;;;;;7.28;100.00;101295.34;6184945;28;20049;-75
2022/01/29 12:08:14;;;;;;;6.20;3.40;;;;;;;7.26;100.00;101304.13;6189750;28;20046;-75
2022/01/29 12:11:18;;;;;;;6.18;2.85;;;;;;;7.33;100.00;101289.97;6195164;28;20742;-76
2022/01/29 12:14:25;;;;;;;6.50;2.97;;;;;;;7.29;100.00;101290.97;6197113;28;20477;-75
2022/01/29 12:17:34;;;;;;;3.38;2.05;;;;;;;7.24;100.00;101282.44;6191740;28;20042;-75
2022/01/29 12:20:39;;;;;;;6.75;2.97;;;;;;;7.26;100.00;101278.00;6196611;28;20046;-75
2022/01/29 12:23:49;;;;;;;5.47;2.22;;;;;;;7.37;100.00;101281.16;6196668;28;20054;-76
2022/01/29 12:26:53;;;;;;;5.63;2.75;;;;;;;7.40;100.00;101270.56;6197132;28;20050;-75
2022/01/29 12:29:55;;;;;;;9.48;3.17;;;;;;;7.43;100.00;101272.25;6195093;28;20046;-75
2022/01/29 12:32:59;;;;;;;4.57;2.67;;;;;;;7.41;100.00;101261.00;6198280;28;20057;-75
2022/01/29 12:36:03;;;;;;;4.15;2.17;;;;;;;7.52;100.00;101259.72;6198346;28;20057;-74
2022/01/29 12:39:06;;;;;;;7.05;3.22;;;;;;;7.49;100.00;101238.88;6197508;28;20055;-74
2022/01/29 12:42:24;;;;;;;5.18;2.50;;;;;;;7.58;100.00;101228.13;6197942;28;20137;-75
2022/01/29 12:45:27;;;;;;;5.95;2.70;;;;;;;7.58;100.00;101206.34;6198021;28;20129;-75
2022/01/29 12:48:28;;;;;;;6.75;3.05;;;;;;;7.71;100.00;101198.94;6197962;28;20058;-76
2022/01/29 12:51:31;;;;;;;6.03;3.08;;;;;;;7.73;100.00;101179.69;6196995;28;20410;-74
2022/01/29 12:54:34;;;;;;;7.25;3.15;;;;;;;7.89;100.00;101174.75;6196065;28;20057;-74
2022/01/29 12:57:43;;;;;;;6.15;2.83;;;;;;;7.99;100.00;101173.53;6174626;28;20047;-74
2022/01/29 13:00:45;;;;;;;5.68;3.10;;;;;;;7.97;100.00;101159.66;6173386;28;20426;-74
2022/01/29 13:03:47;;;;;;;10.10;4.05;;;;;;;8.07;100.00;101157.56;6173608;28;20051;-74
2022/01/29 13:07:01;;;;;;;6.80;2.47;;;;;;;8.19;100.00;101157.09;6173861;28;20046;-74
2022/01/29 13:10:03;;;;;;;6.10;3.22;;;;;;;8.22;100.00;101159.63;6173322;28;20051;-74
2022/01/29 13:13:04;;;;;;;5.13;3.00;;;;;;;8.23;100.00;101150.84;6201395;28;20057;-74
2022/01/29 13:16:09;;;;;;;7.28;2.95;;;;;;;8.34;100.00;101135.59;6197834;28;20469;-74
2022/01/29 13:19:11;;;;;;;9.27;3.53;;;;;;;8.33;100.00;101133.03;6197081;28;20050;-75
2022/01/29 13:22:15;;;;;;;4.65;3.20;;;;;;;8.33;100.00;101131.25;6197137;28;20054;-75
2022/01/29 13:25:17;;;;;;;5.90;2.67;;;;;;;8.33;100.00;101139.13;6197382;28;20057;-75
2022/01/29 13:28:19;;;;;;;4.18;2.40;;;;;;;8.38;100.00;101152.06;6197619;28;20089;-78
2022/01/29 13:31:20;;;;;;;5.15;2.90;;;;;;;8.38;100.00;101145.06;6197189;28;20421;-75
2022/01/29 13:34:26;;;;;;;9.00;3.47;;;;;;;8.46;100.00;101142.16;6197632;28;20046;-74
2022/01/29 13:37:30;;;;;;;4.38;2.78;;;;;;;8.47;100.00;101141.25;6197340;28;20101;-74
2022/01/29 13:40:34;;;;;;;4.82;2.88;;;;;;;8.42;100.00;101132.72;6198165;28;20054;-76
2022/01/29 13:43:37;;;;;;;6.70;3.17;;;;;;;8.44;100.00;101132.66;6202040;28;20046;-74
2022/01/29 13:46:39;;;;;;;5.25;2.70;;;;;;;8.49;100.00;101109.75;6200913;28;20057;-73
2022/01/29 13:49:44;;;;;;;3.60;2.45;;;;;;;8.53;100.00;101078.13;6188606;28;20050;-74
2022/01/29 13:53:08;;;;;;;4.18;2.92;;;;;;;8.62;100.00;101083.00;6194702;28;20051;-74
2022/01/29 13:56:11;;;;;;;3.67;2.58;;;;;;;8.65;100.00;101097.75;6201400;28;20050;-74
2022/01/29 13:59:13;;;;;;;3.65;2.42;;;;;;;8.71;100.00;101084.41;6201066;28;20054;-74
2022/01/29 14:02:14;;;;;;;5.40;2.25;;;;;;;8.79;100.00;101064.00;6200408;28;20053;-74
2022/01/29 14:05:22;;;;;;;6.15;3.15;;;;;;;8.86;100.00;101047.13;6201564;28;20054;-74
2022/01/29 14:08:24;;;;;;;3.10;1.73;;;;;;;8.86;100.00;101043.66;6201280;28;20050;-74
2022/01/29 14:11:52;;;;;;;3.28;1.77;;;;;;;8.87;100.00;101045.34;6198845;28;20552;-76
2022/01/29 14:14:55;;;;;;;3.58;2.40;;;;;;;8.87;100.00;101045.34;6196956;28;20038;-76